Billie H — WCY4992 — position and weather

sailwx.info

Track history (hours):
 
Tides and Currents Weather Stations Pressure Air Temp Water Temp Dewpoint Dewpoint Depression Visibility Wind Speed Wind Dir Waves Ship Positions

Billie H

Owner: BOYER TOWING INC, KETCHIKAN, AK. More information available from US FCC via Universal Licensing System and Coast Guard Vessel Documentation Center.

Last reported at 2017-Jan-17 21:00 UTC. Time now 2017-Jan-17 23:38 UTC.
Position N 55°12' W 131°54'.

Type: Tow > 200 m length. MMSI: 366751770.

Wind from 320 at 10 knots

Barometer 988.0 mb
Air temperature 5.6 ° C
Visibility: greater than 1.1 NM

Date/timePositionNaut miles runAvg speedWind from/ knotsBaromVisibWave heightAir tempDewpointWater temp
2017-Jan-17 21:00N 55°12' W 131°54'228 8.9 320 / 10988.0 1.1 5.6
2017-Jan-16 19:27N 51°56' W 128°37'910.2
2017-Jan-16 18:33N 51°48' W 128°30'10 9.9
2017-Jan-16 17:33N 51°40' W 128°22'1010.3
2017-Jan-16 16:33N 51°31' W 128°13'1210.2
2017-Jan-16 15:20N 51°22' W 127°58'17 9.6
2017-Jan-16 13:33N 51°07' W 127°47'10 9.8
2017-Jan-16 12:33N 50°60' W 127°36'9 8.8
2017-Jan-16 11:33N 50°55' W 127°25'9 8.9
2017-Jan-16 10:33N 50°49' W 127°13'10 8.9
2017-Jan-16 09:27N 50°43' W 127°01'6410.0
2017-Jan-16 03:06N 50°20' W 125°27'5 8.4
2017-Jan-16 02:33N 50°16' W 125°24'8 8.2
2017-Jan-16 01:33N 50°08' W 125°21'5 5.2
2017-Jan-16 00:33N 50°05' W 125°15'6 6.0
2017-Jan-15 23:32N 49°59' W 125°11'9 9.1
2017-Jan-15 22:33N 49°54' W 125°00'9 8.9
2017-Jan-15 21:34N 49°48' W 124°49'9 8.9
2017-Jan-15 20:33N 49°43' W 124°38'9 8.8
2017-Jan-15 19:34N 49°37' W 124°28'9 9.1
2017-Jan-15 18:33N 49°32' W 124°16'9 8.8
2017-Jan-15 17:33N 49°27' W 124°05'13 9.0
2017-Jan-15 16:09N 49°21' W 123°48'15 9.2
2017-Jan-15 14:33N 49°11' W 123°32'9 9.3
2017-Jan-15 13:33N 49°04' W 123°21'9 9.0
2017-Jan-15 12:33N 48°58' W 123°12'10 9.7
2017-Jan-15 11:33N 48°52' W 123°00'9 8.7
2017-Jan-15 10:28N 48°47' W 122°48'8 8.6
2017-Jan-15 09:33N 48°39' W 122°44'8 8.1
2017-Jan-15 08:33N 48°31' W 122°44'7 6.7
2017-Jan-15 07:32N 48°24' W 122°44'28 9.3
2017-Jan-15 04:33N 47°58' W 122°33'1010.0
2017-Jan-15 03:33N 47°49' W 122°27'7 7.0
2017-Jan-15 02:34N 47°43' W 122°32'0 0.0
2017-Jan-15 01:33N 47°43' W 122°32'8 7.9
2017-Jan-15 00:33N 47°37' W 122°24'5 5.4
2017-Jan-14 23:33N 47°32' W 122°20'  
Track history (hours):
 
Tides and Currents Weather Stations Pressure Air Temp Water Temp Dewpoint Dewpoint Depression Visibility Wind Speed Wind Dir Waves Ship Positions

Billie H

Owner: BOYER TOWING INC, KETCHIKAN, AK. More information available from US FCC via Universal Licensing System and Coast Guard Vessel Documentation Center.

Last reported at 2017-Jan-17 21:00 UTC. Time now 2017-Jan-17 23:38 UTC.
Position N 55°12' W 131°54'.

Type: Tow > 200 m length. MMSI: 366751770.

Wind from 320 at 10 knots

Barometer 988.0 mb
Air temperature 5.6 ° C
Visibility: greater than 1.1 NM

Date/timePositionNaut miles runAvg speedWind from/ knotsBaromVisibWave heightAir tempDewpointWater temp
2017-Jan-17 21:00N 55°12' W 131°54'228 8.9 320 / 10988.0 1.1 5.6
2017-Jan-16 19:27N 51°56' W 128°37'910.2
2017-Jan-16 18:33N 51°48' W 128°30'10 9.9
2017-Jan-16 17:33N 51°40' W 128°22'1010.3
2017-Jan-16 16:33N 51°31' W 128°13'1210.2
2017-Jan-16 15:20N 51°22' W 127°58'17 9.6
2017-Jan-16 13:33N 51°07' W 127°47'10 9.8
2017-Jan-16 12:33N 50°60' W 127°36'9 8.8
2017-Jan-16 11:33N 50°55' W 127°25'9 8.9
2017-Jan-16 10:33N 50°49' W 127°13'10 8.9
2017-Jan-16 09:27N 50°43' W 127°01'6410.0
2017-Jan-16 03:06N 50°20' W 125°27'5 8.4
2017-Jan-16 02:33N 50°16' W 125°24'8 8.2
2017-Jan-16 01:33N 50°08' W 125°21'5 5.2
2017-Jan-16 00:33N 50°05' W 125°15'6 6.0
2017-Jan-15 23:32N 49°59' W 125°11'9 9.1
2017-Jan-15 22:33N 49°54' W 125°00'9 8.9
2017-Jan-15 21:34N 49°48' W 124°49'9 8.9
2017-Jan-15 20:33N 49°43' W 124°38'9 8.8
2017-Jan-15 19:34N 49°37' W 124°28'9 9.1
2017-Jan-15 18:33N 49°32' W 124°16'9 8.8
2017-Jan-15 17:33N 49°27' W 124°05'13 9.0
2017-Jan-15 16:09N 49°21' W 123°48'15 9.2
2017-Jan-15 14:33N 49°11' W 123°32'9 9.3
2017-Jan-15 13:33N 49°04' W 123°21'9 9.0
2017-Jan-15 12:33N 48°58' W 123°12'10 9.7
2017-Jan-15 11:33N 48°52' W 123°00'9 8.7
2017-Jan-15 10:28N 48°47' W 122°48'8 8.6
2017-Jan-15 09:33N 48°39' W 122°44'8 8.1
2017-Jan-15 08:33N 48°31' W 122°44'7 6.7
2017-Jan-15 07:32N 48°24' W 122°44'28 9.3
2017-Jan-15 04:33N 47°58' W 122°33'1010.0
2017-Jan-15 03:33N 47°49' W 122°27'7 7.0
2017-Jan-15 02:34N 47°43' W 122°32'0 0.0
2017-Jan-15 01:33N 47°43' W 122°32'8 7.9
2017-Jan-15 00:33N 47°37' W 122°24'5 5.4
2017-Jan-14 23:33N 47°32' W 122°20'  

Dump ship's entire track history